sensor_id;sensor_type;location;lat;lon;timestamp;P1;durP1;ratioP1;P2;durP2;ratioP2
54430;SDS011;40342;52.998;5.862;2022-10-17T00:01:01;11.43;;;2.70;;
54430;SDS011;40342;52.998;5.862;2022-10-17T00:03:28;11.27;;;2.92;;
54430;SDS011;40342;52.998;5.862;2022-10-17T00:05:53;12.23;;;3.17;;
54430;SDS011;40342;52.998;5.862;2022-10-17T00:08:19;11.88;;;2.85;;
54430;SDS011;40342;52.998;5.862;2022-10-17T00:10:45;11.52;;;2.80;;
54430;SDS011;40342;52.998;5.862;2022-10-17T00:13:20;10.82;;;3.30;;
54430;SDS011;40342;52.998;5.862;2022-10-17T00:15:45;11.98;;;2.90;;
54430;SDS011;40342;52.998;5.862;2022-10-17T00:18:11;9.35;;;3.00;;
54430;SDS011;40342;52.998;5.862;2022-10-17T00:20:36;9.60;;;2.42;;
54430;SDS011;40342;52.998;5.862;2022-10-17T00:23:02;15.65;;;3.70;;
54430;SDS011;40342;52.998;5.862;2022-10-17T00:25:27;10.07;;;2.88;;
54430;SDS011;40342;52.998;5.862;2022-10-17T00:27:53;9.75;;;2.65;;
54430;SDS011;40342;52.998;5.862;2022-10-17T00:30:19;10.65;;;2.55;;
54430;SDS011;40342;52.998;5.862;2022-10-17T00:32:44;10.68;;;2.70;;
54430;SDS011;40342;52.998;5.862;2022-10-17T00:35:10;8.82;;;2.63;;
54430;SDS011;40342;52.998;5.862;2022-10-17T00:37:36;12.75;;;2.58;;
54430;SDS011;40342;52.998;5.862;2022-10-17T00:40:02;11.13;;;3.10;;
54430;SDS011;40342;52.998;5.862;2022-10-17T00:42:29;7.72;;;3.03;;
54430;SDS011;40342;52.998;5.862;2022-10-17T00:44:59;14.98;;;3.25;;
54430;SDS011;40342;52.998;5.862;2022-10-17T00:47:31;8.52;;;2.50;;
54430;SDS011;40342;52.998;5.862;2022-10-17T00:49:58;10.75;;;3.00;;
54430;SDS011;40342;52.998;5.862;2022-10-17T00:52:25;13.30;;;3.03;;
54430;SDS011;40342;52.998;5.862;2022-10-17T00:54:57;11.07;;;3.13;;
54430;SDS011;40342;52.998;5.862;2022-10-17T00:57:26;5.90;;;2.20;;
54430;SDS011;40342;52.998;5.862;2022-10-17T00:59:55;10.25;;;2.83;;
54430;SDS011;40342;52.998;5.862;2022-10-17T01:02:23;9.90;;;2.80;;
54430;SDS011;40342;52.998;5.862;2022-10-17T01:04:49;9.35;;;2.50;;
54430;SDS011;40342;52.998;5.862;2022-10-17T01:07:19;9.00;;;2.83;;
54430;SDS011;40342;52.998;5.862;2022-10-17T01:09:45;9.52;;;2.78;;
54430;SDS011;40342;52.998;5.862;2022-10-17T01:29:31;9.73;;;3.20;;
54430;SDS011;40342;52.998;5.862;2022-10-17T01:34:46;9.52;;;3.40;;
54430;SDS011;40342;52.998;5.862;2022-10-17T01:37:26;8.60;;;3.60;;
54430;SDS011;40342;52.998;5.862;2022-10-17T01:45:15;7.57;;;3.40;;
54430;SDS011;40342;52.998;5.862;2022-10-17T01:47:50;8.13;;;3.75;;
54430;SDS011;40342;52.998;5.862;2022-10-17T01:50:27;6.03;;;3.58;;
54430;SDS011;40342;52.998;5.862;2022-10-17T01:52:58;7.13;;;3.90;;
54430;SDS011;40342;52.998;5.862;2022-10-17T01:55:32;10.55;;;4.18;;
54430;SDS011;40342;52.998;5.862;2022-10-17T01:58:05;8.07;;;3.63;;
54430;SDS011;40342;52.998;5.862;2022-10-17T02:00:41;11.50;;;4.40;;
54430;SDS011;40342;52.998;5.862;2022-10-17T02:03:10;9.15;;;3.97;;
54430;SDS011;40342;52.998;5.862;2022-10-17T02:05:40;8.82;;;3.90;;
54430;SDS011;40342;52.998;5.862;2022-10-17T02:08:07;10.02;;;3.58;;
54430;SDS011;40342;52.998;5.862;2022-10-17T02:16:25;5.78;;;3.63;;
54430;SDS011;40342;52.998;5.862;2022-10-17T02:22:15;8.82;;;4.07;;
54430;SDS011;40342;52.998;5.862;2022-10-17T02:24:53;10.18;;;4.60;;
54430;SDS011;40342;52.998;5.862;2022-10-17T02:27:46;10.38;;;3.67;;
54430;SDS011;40342;52.998;5.862;2022-10-17T02:30:25;8.48;;;4.40;;
54430;SDS011;40342;52.998;5.862;2022-10-17T02:33:01;10.98;;;4.38;;
54430;SDS011;40342;52.998;5.862;2022-10-17T02:38:09;9.48;;;4.30;;
54430;SDS011;40342;52.998;5.862;2022-10-17T02:40:36;8.07;;;4.65;;
54430;SDS011;40342;52.998;5.862;2022-10-17T02:43:03;8.48;;;4.75;;
54430;SDS011;40342;52.998;5.862;2022-10-17T02:45:29;8.00;;;5.22;;
54430;SDS011;40342;52.998;5.862;2022-10-17T02:56:14;8.77;;;5.97;;
54430;SDS011;40342;52.998;5.862;2022-10-17T02:58:42;8.27;;;5.47;;
54430;SDS011;40342;52.998;5.862;2022-10-17T03:01:12;9.85;;;6.22;;
54430;SDS011;40342;52.998;5.862;2022-10-17T03:03:38;12.70;;;6.57;;
54430;SDS011;40342;52.998;5.862;2022-10-17T03:06:04;9.75;;;6.18;;
54430;SDS011;40342;52.998;5.862;2022-10-17T03:08:29;9.40;;;6.97;;
54430;SDS011;40342;52.998;5.862;2022-10-17T03:10:55;9.00;;;6.20;;
54430;SDS011;40342;52.998;5.862;2022-10-17T03:13:21;9.68;;;7.50;;
54430;SDS011;40342;52.998;5.862;2022-10-17T03:15:46;7.70;;;6.82;;
54430;SDS011;40342;52.998;5.862;2022-10-17T03:18:12;15.43;;;7.80;;
54430;SDS011;40342;52.998;5.862;2022-10-17T03:20:38;9.38;;;7.57;;
54430;SDS011;40342;52.998;5.862;2022-10-17T03:23:03;11.98;;;7.32;;
54430;SDS011;40342;52.998;5.862;2022-10-17T03:25:29;9.05;;;6.80;;
54430;SDS011;40342;52.998;5.862;2022-10-17T03:27:56;12.02;;;7.60;;
54430;SDS011;40342;52.998;5.862;2022-10-17T03:30:24;8.05;;;7.25;;
54430;SDS011;40342;52.998;5.862;2022-10-17T03:32:49;8.23;;;7.28;;
54430;SDS011;40342;52.998;5.862;2022-10-17T03:35:15;9.95;;;7.53;;
54430;SDS011;40342;52.998;5.862;2022-10-17T03:37:40;9.77;;;7.38;;
54430;SDS011;40342;52.998;5.862;2022-10-17T03:40:06;9.63;;;8.00;;
54430;SDS011;40342;52.998;5.862;2022-10-17T03:42:32;12.05;;;8.32;;
54430;SDS011;40342;52.998;5.862;2022-10-17T03:44:57;11.68;;;8.07;;
54430;SDS011;40342;52.998;5.862;2022-10-17T03:47:23;10.57;;;8.45;;
54430;SDS011;40342;52.998;5.862;2022-10-17T03:49:49;10.93;;;9.15;;
54430;SDS011;40342;52.998;5.862;2022-10-17T03:52:14;12.60;;;9.30;;
54430;SDS011;40342;52.998;5.862;2022-10-17T03:54:40;15.82;;;9.70;;
54430;SDS011;40342;52.998;5.862;2022-10-17T03:57:05;10.68;;;8.90;;
54430;SDS011;40342;52.998;5.862;2022-10-17T03:59:31;10.73;;;9.18;;
54430;SDS011;40342;52.998;5.862;2022-10-17T04:01:57;14.35;;;10.18;;
54430;SDS011;40342;52.998;5.862;2022-10-17T04:04:22;13.98;;;9.88;;
54430;SDS011;40342;52.998;5.862;2022-10-17T04:06:48;10.40;;;9.27;;
54430;SDS011;40342;52.998;5.862;2022-10-17T04:09:13;10.88;;;9.70;;
54430;SDS011;40342;52.998;5.862;2022-10-17T04:11:39;13.02;;;10.43;;
54430;SDS011;40342;52.998;5.862;2022-10-17T04:14:05;11.52;;;10.32;;
54430;SDS011;40342;52.998;5.862;2022-10-17T04:16:30;12.15;;;9.65;;
54430;SDS011;40342;52.998;5.862;2022-10-17T04:18:56;13.20;;;10.40;;
54430;SDS011;40342;52.998;5.862;2022-10-17T04:21:24;13.43;;;12.00;;
54430;SDS011;40342;52.998;5.862;2022-10-17T04:23:53;12.98;;;10.00;;
54430;SDS011;40342;52.998;5.862;2022-10-17T04:26:21;13.73;;;11.05;;
54430;SDS011;40342;52.998;5.862;2022-10-17T04:28:47;12.90;;;11.65;;
54430;SDS011;40342;52.998;5.862;2022-10-17T04:31:13;13.27;;;11.40;;
54430;SDS011;40342;52.998;5.862;2022-10-17T04:33:39;12.40;;;11.07;;
54430;SDS011;40342;52.998;5.862;2022-10-17T04:36:07;12.40;;;11.13;;
54430;SDS011;40342;52.998;5.862;2022-10-17T04:38:36;13.20;;;11.73;;
54430;SDS011;40342;52.998;5.862;2022-10-17T04:41:04;12.32;;;11.05;;
54430;SDS011;40342;52.998;5.862;2022-10-17T04:43:40;12.50;;;11.20;;
54430;SDS011;40342;52.998;5.862;2022-10-17T04:46:10;11.75;;;10.63;;
54430;SDS011;40342;52.998;5.862;2022-10-17T04:48:38;11.90;;;9.98;;
54430;SDS011;40342;52.998;5.862;2022-10-17T04:51:05;12.15;;;10.95;;
54430;SDS011;40342;52.998;5.862;2022-10-17T04:53:33;13.20;;;10.80;;
54430;SDS011;40342;52.998;5.862;2022-10-17T04:56:00;14.02;;;10.45;;
54430;SDS011;40342;52.998;5.862;2022-10-17T04:58:31;12.82;;;10.30;;
54430;SDS011;40342;52.998;5.862;2022-10-17T05:00:56;12.55;;;10.23;;
54430;SDS011;40342;52.998;5.862;2022-10-17T05:03:22;15.00;;;10.63;;
54430;SDS011;40342;52.998;5.862;2022-10-17T05:05:47;15.88;;;11.02;;
54430;SDS011;40342;52.998;5.862;2022-10-17T05:08:13;14.85;;;11.43;;
54430;SDS011;40342;52.998;5.862;2022-10-17T05:10:39;12.75;;;11.13;;
54430;SDS011;40342;52.998;5.862;2022-10-17T05:13:10;14.82;;;11.45;;
54430;SDS011;40342;52.998;5.862;2022-10-17T05:15:36;12.52;;;10.13;;
54430;SDS011;40342;52.998;5.862;2022-10-17T05:18:03;11.65;;;10.60;;
54430;SDS011;40342;52.998;5.862;2022-10-17T05:20:29;13.90;;;11.15;;
54430;SDS011;40342;52.998;5.862;2022-10-17T05:22:57;13.07;;;11.30;;
54430;SDS011;40342;52.998;5.862;2022-10-17T05:25:23;12.32;;;10.80;;
54430;SDS011;40342;52.998;5.862;2022-10-17T05:27:49;12.88;;;10.80;;
54430;SDS011;40342;52.998;5.862;2022-10-17T05:30:15;17.08;;;11.00;;
54430;SDS011;40342;52.998;5.862;2022-10-17T05:32:40;12.30;;;10.60;;
54430;SDS011;40342;52.998;5.862;2022-10-17T05:35:06;12.70;;;11.48;;
54430;SDS011;40342;52.998;5.862;2022-10-17T05:37:31;14.93;;;11.30;;
54430;SDS011;40342;52.998;5.862;2022-10-17T05:39:57;12.27;;;11.18;;
54430;SDS011;40342;52.998;5.862;2022-10-17T05:42:23;13.13;;;11.85;;
54430;SDS011;40342;52.998;5.862;2022-10-17T05:44:49;12.25;;;10.85;;
54430;SDS011;40342;52.998;5.862;2022-10-17T05:47:14;11.18;;;10.02;;
54430;SDS011;40342;52.998;5.862;2022-10-17T05:49:40;12.52;;;11.02;;
54430;SDS011;40342;52.998;5.862;2022-10-17T05:52:06;11.85;;;10.75;;
54430;SDS011;40342;52.998;5.862;2022-10-17T05:54:31;12.75;;;11.30;;
54430;SDS011;40342;52.998;5.862;2022-10-17T05:56:57;12.23;;;10.73;;
54430;SDS011;40342;52.998;5.862;2022-10-17T05:59:23;11.73;;;10.50;;
54430;SDS011;40342;52.998;5.862;2022-10-17T06:01:50;11.75;;;10.65;;
54430;SDS011;40342;52.998;5.862;2022-10-17T06:04:16;13.02;;;10.70;;
54430;SDS011;40342;52.998;5.862;2022-10-17T06:06:41;14.13;;;11.30;;
54430;SDS011;40342;52.998;5.862;2022-10-17T06:09:07;12.82;;;10.65;;
54430;SDS011;40342;52.998;5.862;2022-10-17T06:11:33;12.63;;;10.30;;
54430;SDS011;40342;52.998;5.862;2022-10-17T06:13:59;13.43;;;10.15;;
54430;SDS011;40342;52.998;5.862;2022-10-17T06:16:25;13.95;;;10.73;;
54430;SDS011;40342;52.998;5.862;2022-10-17T06:18:51;11.45;;;9.88;;
54430;SDS011;40342;52.998;5.862;2022-10-17T06:21:18;11.35;;;10.15;;
54430;SDS011;40342;52.998;5.862;2022-10-17T06:23:46;11.57;;;10.38;;
54430;SDS011;40342;52.998;5.862;2022-10-17T06:26:11;13.77;;;10.07;;
54430;SDS011;40342;52.998;5.862;2022-10-17T06:28:37;12.95;;;9.77;;
54430;SDS011;40342;52.998;5.862;2022-10-17T06:31:13;13.95;;;9.70;;
54430;SDS011;40342;52.998;5.862;2022-10-17T06:33:39;10.70;;;9.60;;
54430;SDS011;40342;52.998;5.862;2022-10-17T06:36:06;11.15;;;9.95;;
54430;SDS011;40342;52.998;5.862;2022-10-17T06:38:33;13.15;;;9.63;;
54430;SDS011;40342;52.998;5.862;2022-10-17T06:41:07;11.02;;;9.77;;
54430;SDS011;40342;52.998;5.862;2022-10-17T06:43:38;10.38;;;9.35;;
54430;SDS011;40342;52.998;5.862;2022-10-17T06:46:05;11.95;;;9.38;;
54430;SDS011;40342;52.998;5.862;2022-10-17T06:48:30;10.35;;;9.18;;
54430;SDS011;40342;52.998;5.862;2022-10-17T06:51:00;11.75;;;9.13;;
54430;SDS011;40342;52.998;5.862;2022-10-17T06:53:27;13.30;;;10.02;;
54430;SDS011;40342;52.998;5.862;2022-10-17T06:55:53;9.95;;;8.95;;
54430;SDS011;40342;52.998;5.862;2022-10-17T06:58:22;10.32;;;8.57;;
54430;SDS011;40342;52.998;5.862;2022-10-17T07:00:47;15.77;;;9.23;;
54430;SDS011;40342;52.998;5.862;2022-10-17T07:03:13;9.10;;;8.30;;
54430;SDS011;40342;52.998;5.862;2022-10-17T07:05:38;11.32;;;8.90;;
54430;SDS011;40342;52.998;5.862;2022-10-17T07:08:04;9.32;;;8.43;;
54430;SDS011;40342;52.998;5.862;2022-10-17T07:10:30;11.68;;;8.55;;
54430;SDS011;40342;52.998;5.862;2022-10-17T07:12:55;10.18;;;9.00;;
54430;SDS011;40342;52.998;5.862;2022-10-17T07:15:21;11.35;;;8.63;;
54430;SDS011;40342;52.998;5.862;2022-10-17T07:17:47;10.55;;;9.00;;
54430;SDS011;40342;52.998;5.862;2022-10-17T07:20:14;9.60;;;8.23;;
54430;SDS011;40342;52.998;5.862;2022-10-17T07:22:40;12.73;;;9.05;;
54430;SDS011;40342;52.998;5.862;2022-10-17T07:25:06;12.00;;;8.88;;
54430;SDS011;40342;52.998;5.862;2022-10-17T07:27:32;10.00;;;8.82;;
54430;SDS011;40342;52.998;5.862;2022-10-17T07:29:57;9.65;;;8.23;;
54430;SDS011;40342;52.998;5.862;2022-10-17T07:32:23;9.88;;;8.15;;
54430;SDS011;40342;52.998;5.862;2022-10-17T07:34:49;11.95;;;8.20;;
54430;SDS011;40342;52.998;5.862;2022-10-17T07:37:14;10.85;;;8.48;;
54430;SDS011;40342;52.998;5.862;2022-10-17T07:39:40;10.77;;;8.50;;
54430;SDS011;40342;52.998;5.862;2022-10-17T07:42:06;9.68;;;8.70;;
54430;SDS011;40342;52.998;5.862;2022-10-17T07:44:31;12.88;;;8.73;;
54430;SDS011;40342;52.998;5.862;2022-10-17T07:46:57;10.23;;;8.35;;
54430;SDS011;40342;52.998;5.862;2022-10-17T07:49:23;10.65;;;7.68;;
54430;SDS011;40342;52.998;5.862;2022-10-17T07:51:48;9.70;;;8.80;;
54430;SDS011;40342;52.998;5.862;2022-10-17T07:54:14;10.00;;;7.57;;
54430;SDS011;40342;52.998;5.862;2022-10-17T07:56:39;9.32;;;8.45;;
54430;SDS011;40342;52.998;5.862;2022-10-17T07:59:05;12.00;;;8.02;;
54430;SDS011;40342;52.998;5.862;2022-10-17T08:01:31;10.57;;;7.70;;
54430;SDS011;40342;52.998;5.862;2022-10-17T08:03:56;9.40;;;7.38;;
54430;SDS011;40342;52.998;5.862;2022-10-17T08:06:22;10.15;;;7.95;;
54430;SDS011;40342;52.998;5.862;2022-10-17T08:08:47;8.10;;;7.32;;
54430;SDS011;40342;52.998;5.862;2022-10-17T08:11:13;10.02;;;7.82;;
54430;SDS011;40342;52.998;5.862;2022-10-17T08:13:40;8.30;;;7.43;;
54430;SDS011;40342;52.998;5.862;2022-10-17T08:16:07;11.38;;;7.55;;
54430;SDS011;40342;52.998;5.862;2022-10-17T08:18:34;8.93;;;7.90;;
54430;SDS011;40342;52.998;5.862;2022-10-17T08:21:02;8.65;;;7.22;;
54430;SDS011;40342;52.998;5.862;2022-10-17T08:23:30;9.43;;;7.40;;
54430;SDS011;40342;52.998;5.862;2022-10-17T08:25:59;14.02;;;8.13;;
54430;SDS011;40342;52.998;5.862;2022-10-17T08:28:26;9.20;;;7.32;;
54430;SDS011;40342;52.998;5.862;2022-10-17T08:30:52;9.43;;;7.60;;
54430;SDS011;40342;52.998;5.862;2022-10-17T08:33:17;10.75;;;7.25;;
54430;SDS011;40342;52.998;5.862;2022-10-17T08:35:43;11.27;;;7.97;;
54430;SDS011;40342;52.998;5.862;2022-10-17T08:38:09;8.00;;;7.30;;
54430;SDS011;40342;52.998;5.862;2022-10-17T08:40:34;9.85;;;7.82;;
54430;SDS011;40342;52.998;5.862;2022-10-17T08:45:50;13.35;;;7.93;;
54430;SDS011;40342;52.998;5.862;2022-10-17T08:48:20;8.40;;;7.60;;
54430;SDS011;40342;52.998;5.862;2022-10-17T08:50:50;10.80;;;7.07;;
54430;SDS011;40342;52.998;5.862;2022-10-17T08:53:35;8.25;;;7.50;;
54430;SDS011;40342;52.998;5.862;2022-10-17T08:56:12;11.68;;;8.27;;
54430;SDS011;40342;52.998;5.862;2022-10-17T08:58:43;8.57;;;7.78;;
54430;SDS011;40342;52.998;5.862;2022-10-17T09:06:20;10.38;;;6.68;;
54430;SDS011;40342;52.998;5.862;2022-10-17T09:08:58;10.15;;;7.10;;
54430;SDS011;40342;52.998;5.862;2022-10-17T09:14:43;9.18;;;7.53;;
54430;SDS011;40342;52.998;5.862;2022-10-17T09:20:02;13.52;;;7.60;;
54430;SDS011;40342;52.998;5.862;2022-10-17T09:25:42;11.80;;;7.90;;
54430;SDS011;40342;52.998;5.862;2022-10-17T09:28:18;12.25;;;8.07;;
54430;SDS011;40342;52.998;5.862;2022-10-17T09:31:02;12.82;;;8.73;;
54430;SDS011;40342;52.998;5.862;2022-10-17T09:33:38;16.58;;;8.50;;
54430;SDS011;40342;52.998;5.862;2022-10-17T09:36:12;10.63;;;8.48;;
54430;SDS011;40342;52.998;5.862;2022-10-17T09:38:42;9.70;;;7.57;;
54430;SDS011;40342;52.998;5.862;2022-10-17T09:41:17;13.45;;;8.20;;
54430;SDS011;40342;52.998;5.862;2022-10-17T09:43:44;15.43;;;8.55;;
54430;SDS011;40342;52.998;5.862;2022-10-17T09:46:22;15.93;;;9.05;;
54430;SDS011;40342;52.998;5.862;2022-10-17T09:49:07;10.85;;;8.50;;
54430;SDS011;40342;52.998;5.862;2022-10-17T09:51:46;13.23;;;8.85;;
54430;SDS011;40342;52.998;5.862;2022-10-17T09:54:20;16.63;;;8.85;;
54430;SDS011;40342;52.998;5.862;2022-10-17T09:56:56;13.48;;;9.50;;
54430;SDS011;40342;52.998;5.862;2022-10-17T09:59:37;12.70;;;8.43;;
54430;SDS011;40342;52.998;5.862;2022-10-17T10:02:18;11.05;;;8.52;;
54430;SDS011;40342;52.998;5.862;2022-10-17T10:07:21;9.98;;;8.32;;
54430;SDS011;40342;52.998;5.862;2022-10-17T10:09:48;15.00;;;7.97;;
54430;SDS011;40342;52.998;5.862;2022-10-17T10:12:17;13.32;;;8.77;;
54430;SDS011;40342;52.998;5.862;2022-10-17T10:14:48;11.00;;;8.63;;
54430;SDS011;40342;52.998;5.862;2022-10-17T10:17:27;11.38;;;9.05;;
54430;SDS011;40342;52.998;5.862;2022-10-17T10:23:14;11.02;;;7.90;;
54430;SDS011;40342;52.998;5.862;2022-10-17T10:25:55;11.30;;;9.05;;
54430;SDS011;40342;52.998;5.862;2022-10-17T10:28:30;11.73;;;9.10;;
54430;SDS011;40342;52.998;5.862;2022-10-17T10:30:59;9.75;;;8.75;;
54430;SDS011;40342;52.998;5.862;2022-10-17T10:33:28;13.48;;;8.75;;
54430;SDS011;40342;52.998;5.862;2022-10-17T10:36:00;10.52;;;8.98;;
54430;SDS011;40342;52.998;5.862;2022-10-17T10:38:28;14.48;;;8.50;;
54430;SDS011;40342;52.998;5.862;2022-10-17T10:41:06;9.65;;;8.65;;
54430;SDS011;40342;52.998;5.862;2022-10-17T10:43:34;13.27;;;9.30;;
54430;SDS011;40342;52.998;5.862;2022-10-17T10:46:01;11.63;;;9.25;;
54430;SDS011;40342;52.998;5.862;2022-10-17T10:48:50;10.02;;;9.05;;
54430;SDS011;40342;52.998;5.862;2022-10-17T10:51:26;17.50;;;9.70;;
54430;SDS011;40342;52.998;5.862;2022-10-17T10:54:13;11.63;;;9.70;;
54430;SDS011;40342;52.998;5.862;2022-10-17T10:56:57;12.70;;;9.38;;
54430;SDS011;40342;52.998;5.862;2022-10-17T10:59:34;10.57;;;9.30;;
54430;SDS011;40342;52.998;5.862;2022-10-17T11:10:34;13.02;;;8.77;;
54430;SDS011;40342;52.998;5.862;2022-10-17T11:13:08;10.45;;;8.80;;
54430;SDS011;40342;52.998;5.862;2022-10-17T11:15:43;13.63;;;10.10;;
54430;SDS011;40342;52.998;5.862;2022-10-17T11:18:15;9.43;;;8.40;;
54430;SDS011;40342;52.998;5.862;2022-10-17T11:23:53;11.38;;;8.80;;
54430;SDS011;40342;52.998;5.862;2022-10-17T11:26:28;11.00;;;8.30;;
54430;SDS011;40342;52.998;5.862;2022-10-17T11:28:57;10.48;;;7.20;;
54430;SDS011;40342;52.998;5.862;2022-10-17T11:31:29;11.10;;;7.40;;
54430;SDS011;40342;52.998;5.862;2022-10-17T11:36:49;7.78;;;6.95;;
54430;SDS011;40342;52.998;5.862;2022-10-17T11:39:25;8.02;;;6.38;;
54430;SDS011;40342;52.998;5.862;2022-10-17T11:42:07;11.15;;;6.80;;
54430;SDS011;40342;52.998;5.862;2022-10-17T11:44:37;6.65;;;5.90;;
54430;SDS011;40342;52.998;5.862;2022-10-17T11:50:11;7.55;;;4.88;;
54430;SDS011;40342;52.998;5.862;2022-10-17T11:53:07;5.97;;;4.60;;
54430;SDS011;40342;52.998;5.862;2022-10-17T11:55:37;5.40;;;4.65;;
54430;SDS011;40342;52.998;5.862;2022-10-17T12:07:10;4.55;;;3.97;;
54430;SDS011;40342;52.998;5.862;2022-10-17T12:09:45;6.95;;;3.60;;
54430;SDS011;40342;52.998;5.862;2022-10-17T12:12:23;4.45;;;3.42;;
54430;SDS011;40342;52.998;5.862;2022-10-17T12:14:53;4.18;;;3.53;;
54430;SDS011;40342;52.998;5.862;2022-10-17T12:17:43;7.28;;;3.25;;
54430;SDS011;40342;52.998;5.862;2022-10-17T12:20:23;9.07;;;3.30;;
54430;SDS011;40342;52.998;5.862;2022-10-17T12:23:33;5.63;;;3.63;;
54430;SDS011;40342;52.998;5.862;2022-10-17T12:25:51;3.72;;;3.15;;
54430;SDS011;40342;52.998;5.862;2022-10-17T12:28:21;4.07;;;3.28;;
54430;SDS011;40342;52.998;5.862;2022-10-17T12:30:57;4.65;;;3.30;;
54430;SDS011;40342;52.998;5.862;2022-10-17T12:33:47;5.95;;;3.67;;
54430;SDS011;40342;52.998;5.862;2022-10-17T12:38:42;3.95;;;2.80;;
54430;SDS011;40342;52.998;5.862;2022-10-17T12:41:15;5.68;;;2.95;;
54430;SDS011;40342;52.998;5.862;2022-10-17T12:44:01;4.28;;;2.90;;
54430;SDS011;40342;52.998;5.862;2022-10-17T12:55:12;9.40;;;3.60;;
54430;SDS011;40342;52.998;5.862;2022-10-17T13:00:43;7.28;;;4.40;;
54430;SDS011;40342;52.998;5.862;2022-10-17T13:03:18;8.35;;;4.07;;
54430;SDS011;40342;52.998;5.862;2022-10-17T13:05:52;9.75;;;4.47;;
54430;SDS011;40342;52.998;5.862;2022-10-17T13:08:20;5.72;;;3.65;;
54430;SDS011;40342;52.998;5.862;2022-10-17T13:10:54;7.47;;;4.15;;
54430;SDS011;40342;52.998;5.862;2022-10-17T13:13:22;6.65;;;4.00;;
54430;SDS011;40342;52.998;5.862;2022-10-17T13:15:57;5.65;;;3.35;;
54430;SDS011;40342;52.998;5.862;2022-10-17T13:18:25;7.22;;;3.03;;
54430;SDS011;40342;52.998;5.862;2022-10-17T13:20:57;5.25;;;2.47;;
54430;SDS011;40342;52.998;5.862;2022-10-17T13:23:24;4.80;;;2.65;;
54430;SDS011;40342;52.998;5.862;2022-10-17T13:29:05;6.15;;;2.88;;
54430;SDS011;40342;52.998;5.862;2022-10-17T13:31:40;4.38;;;2.20;;
54430;SDS011;40342;52.998;5.862;2022-10-17T13:34:15;6.88;;;2.78;;
54430;SDS011;40342;52.998;5.862;2022-10-17T13:36:43;5.03;;;2.50;;
54430;SDS011;40342;52.998;5.862;2022-10-17T13:39:13;3.90;;;2.22;;
54430;SDS011;40342;52.998;5.862;2022-10-17T13:41:41;3.42;;;2.35;;
54430;SDS011;40342;52.998;5.862;2022-10-17T13:44:10;5.75;;;2.58;;
54430;SDS011;40342;52.998;5.862;2022-10-17T13:46:44;5.47;;;2.50;;
54430;SDS011;40342;52.998;5.862;2022-10-17T13:49:18;3.75;;;2.33;;
54430;SDS011;40342;52.998;5.862;2022-10-17T13:51:58;4.32;;;2.63;;
54430;SDS011;40342;52.998;5.862;2022-10-17T13:57:04;4.57;;;2.15;;
54430;SDS011;40342;52.998;5.862;2022-10-17T13:59:41;4.47;;;2.10;;
54430;SDS011;40342;52.998;5.862;2022-10-17T14:02:15;5.93;;;2.38;;
54430;SDS011;40342;52.998;5.862;2022-10-17T14:04:43;3.40;;;2.00;;
54430;SDS011;40342;52.998;5.862;2022-10-17T14:10:42;5.57;;;2.55;;
54430;SDS011;40342;52.998;5.862;2022-10-17T14:13:02;4.55;;;2.30;;
54430;SDS011;40342;52.998;5.862;2022-10-17T14:15:32;5.57;;;2.50;;
54430;SDS011;40342;52.998;5.862;2022-10-17T14:18:00;7.25;;;2.30;;
54430;SDS011;40342;52.998;5.862;2022-10-17T14:20:29;8.00;;;2.72;;
54430;SDS011;40342;52.998;5.862;2022-10-17T14:22:55;4.20;;;2.42;;
54430;SDS011;40342;52.998;5.862;2022-10-17T14:25:36;6.03;;;2.42;;
54430;SDS011;40342;52.998;5.862;2022-10-17T14:30:42;5.53;;;2.30;;
54430;SDS011;40342;52.998;5.862;2022-10-17T14:33:22;3.63;;;2.20;;
54430;SDS011;40342;52.998;5.862;2022-10-17T14:35:51;5.22;;;2.22;;
54430;SDS011;40342;52.998;5.862;2022-10-17T14:38:18;5.07;;;2.22;;
54430;SDS011;40342;52.998;5.862;2022-10-17T14:43:50;4.38;;;2.60;;
54430;SDS011;40342;52.998;5.862;2022-10-17T14:46:21;4.75;;;2.42;;
54430;SDS011;40342;52.998;5.862;2022-10-17T14:48:50;3.63;;;2.00;;
54430;SDS011;40342;52.998;5.862;2022-10-17T14:51:18;4.68;;;2.08;;
54430;SDS011;40342;52.998;5.862;2022-10-17T14:54:01;3.70;;;2.28;;
54430;SDS011;40342;52.998;5.862;2022-10-17T14:56:33;8.25;;;2.25;;
54430;SDS011;40342;52.998;5.862;2022-10-17T14:59:00;3.33;;;1.90;;
54430;SDS011;40342;52.998;5.862;2022-10-17T15:01:27;3.88;;;2.17;;
54430;SDS011;40342;52.998;5.862;2022-10-17T15:03:53;5.45;;;2.22;;
54430;SDS011;40342;52.998;5.862;2022-10-17T15:06:22;2.88;;;1.65;;
54430;SDS011;40342;52.998;5.862;2022-10-17T15:08:51;7.15;;;2.03;;
54430;SDS011;40342;52.998;5.862;2022-10-17T15:11:17;3.15;;;1.70;;
54430;SDS011;40342;52.998;5.862;2022-10-17T15:13:42;3.22;;;1.90;;
54430;SDS011;40342;52.998;5.862;2022-10-17T15:16:18;3.85;;;1.80;;
54430;SDS011;40342;52.998;5.862;2022-10-17T15:21:19;3.72;;;1.88;;
54430;SDS011;40342;52.998;5.862;2022-10-17T15:23:45;7.63;;;1.88;;
54430;SDS011;40342;52.998;5.862;2022-10-17T15:26:18;5.43;;;2.10;;
54430;SDS011;40342;52.998;5.862;2022-10-17T15:28:47;2.15;;;1.95;;
54430;SDS011;40342;52.998;5.862;2022-10-17T15:31:14;3.08;;;2.38;;
54430;SDS011;40342;52.998;5.862;2022-10-17T15:33:41;2.60;;;2.13;;
54430;SDS011;40342;52.998;5.862;2022-10-17T15:38:42;4.13;;;2.00;;
54430;SDS011;40342;52.998;5.862;2022-10-17T15:41:08;4.85;;;2.30;;
54430;SDS011;40342;52.998;5.862;2022-10-17T15:43:35;5.28;;;2.53;;
54430;SDS011;40342;52.998;5.862;2022-10-17T15:46:00;4.03;;;2.80;;
54430;SDS011;40342;52.998;5.862;2022-10-17T15:48:27;4.28;;;2.95;;
54430;SDS011;40342;52.998;5.862;2022-10-17T15:50:55;4.78;;;2.60;;
54430;SDS011;40342;52.998;5.862;2022-10-17T15:53:21;3.88;;;2.60;;
54430;SDS011;40342;52.998;5.862;2022-10-17T15:55:47;6.45;;;2.58;;
54430;SDS011;40342;52.998;5.862;2022-10-17T15:58:15;4.45;;;2.70;;
54430;SDS011;40342;52.998;5.862;2022-10-17T16:00:42;4.28;;;2.55;;
54430;SDS011;40342;52.998;5.862;2022-10-17T16:03:08;4.60;;;2.90;;
54430;SDS011;40342;52.998;5.862;2022-10-17T16:05:34;3.08;;;2.30;;
54430;SDS011;40342;52.998;5.862;2022-10-17T16:07:59;4.30;;;2.60;;
54430;SDS011;40342;52.998;5.862;2022-10-17T16:10:25;5.43;;;2.53;;
54430;SDS011;40342;52.998;5.862;2022-10-17T16:12:51;5.75;;;3.13;;
54430;SDS011;40342;52.998;5.862;2022-10-17T16:17:47;4.40;;;2.47;;
54430;SDS011;40342;52.998;5.862;2022-10-17T16:20:13;5.60;;;2.40;;
54430;SDS011;40342;52.998;5.862;2022-10-17T16:22:40;4.18;;;2.55;;
54430;SDS011;40342;52.998;5.862;2022-10-17T16:25:15;7.50;;;2.72;;
54430;SDS011;40342;52.998;5.862;2022-10-17T16:27:49;5.03;;;2.55;;
54430;SDS011;40342;52.998;5.862;2022-10-17T16:30:18;6.13;;;2.72;;
54430;SDS011;40342;52.998;5.862;2022-10-17T16:32:45;5.43;;;2.78;;
54430;SDS011;40342;52.998;5.862;2022-10-17T16:35:22;8.00;;;4.20;;
54430;SDS011;40342;52.998;5.862;2022-10-17T16:37:50;6.47;;;3.20;;
54430;SDS011;40342;52.998;5.862;2022-10-17T16:40:15;6.00;;;3.05;;
54430;SDS011;40342;52.998;5.862;2022-10-17T16:42:41;4.75;;;2.72;;
54430;SDS011;40342;52.998;5.862;2022-10-17T16:45:07;7.22;;;3.03;;
54430;SDS011;40342;52.998;5.862;2022-10-17T16:47:34;9.15;;;3.08;;
54430;SDS011;40342;52.998;5.862;2022-10-17T16:49:59;7.22;;;3.05;;
54430;SDS011;40342;52.998;5.862;2022-10-17T16:52:25;7.75;;;2.50;;
54430;SDS011;40342;52.998;5.862;2022-10-17T16:54:50;7.45;;;2.67;;
54430;SDS011;40342;52.998;5.862;2022-10-17T16:57:16;7.20;;;2.97;;
54430;SDS011;40342;52.998;5.862;2022-10-17T16:59:42;6.28;;;3.22;;
54430;SDS011;40342;52.998;5.862;2022-10-17T17:02:08;7.75;;;2.90;;